sensor_id;sensor_type;location;lat;lon;timestamp;pressure;altitude;pressure_sealevel;temperature;humidity
28665;BME280;15850;47.524;7.814;2022-11-03T00:00:41;98143.84;;;5.38;100.00
28665;BME280;15850;47.524;7.814;2022-11-03T00:03:08;98023.41;;;4.53;100.00
28665;BME280;15850;47.524;7.814;2022-11-03T00:05:34;98101.94;;;5.08;100.00
28665;BME280;15850;47.524;7.814;2022-11-03T00:08:00;98144.22;;;5.31;100.00
28665;BME280;15850;47.524;7.814;2022-11-03T00:10:26;98103.97;;;5.16;100.00
28665;BME280;15850;47.524;7.814;2022-11-03T00:12:52;98112.63;;;5.13;100.00
28665;BME280;15850;47.524;7.814;2022-11-03T00:15:18;98018.00;;;4.53;100.00
28665;BME280;15850;47.524;7.814;2022-11-03T00:17:45;98145.81;;;5.32;100.00
28665;BME280;15850;47.524;7.814;2022-11-03T00:20:12;98131.47;;;5.18;100.00
28665;BME280;15850;47.524;7.814;2022-11-03T00:22:37;98128.25;;;5.16;100.00
28665;BME280;15850;47.524;7.814;2022-11-03T00:25:03;98165.59;;;5.28;100.00
28665;BME280;15850;47.524;7.814;2022-11-03T00:27:29;97920.09;;;3.76;100.00
28665;BME280;15850;47.524;7.814;2022-11-03T00:29:54;98112.06;;;4.97;100.00
28665;BME280;15850;47.524;7.814;2022-11-03T00:32:20;98144.72;;;5.14;100.00
28665;BME280;15850;47.524;7.814;2022-11-03T00:34:46;98143.56;;;5.21;100.00
28665;BME280;15850;47.524;7.814;2022-11-03T00:37:13;98086.31;;;4.86;100.00
28665;BME280;15850;47.524;7.814;2022-11-03T00:39:38;97963.06;;;4.11;100.00
28665;BME280;15850;47.524;7.814;2022-11-03T00:42:04;98123.56;;;5.03;100.00
28665;BME280;15850;47.524;7.814;2022-11-03T00:44:29;98146.09;;;5.12;100.00
28665;BME280;15850;47.524;7.814;2022-11-03T00:46:55;98104.25;;;4.95;100.00
28665;BME280;15850;47.524;7.814;2022-11-03T00:49:21;98153.47;;;5.25;100.00
28665;BME280;15850;47.524;7.814;2022-11-03T00:51:46;98154.50;;;5.29;100.00
28665;BME280;15850;47.524;7.814;2022-11-03T00:54:13;98149.75;;;5.21;100.00
28665;BME280;15850;47.524;7.814;2022-11-03T00:56:40;98139.09;;;5.11;100.00
28665;BME280;15850;47.524;7.814;2022-11-03T00:59:07;97811.75;;;2.99;100.00
28665;BME280;15850;47.524;7.814;2022-11-03T01:01:35;98132.00;;;4.96;100.00
28665;BME280;15850;47.524;7.814;2022-11-03T01:04:01;98138.50;;;4.95;100.00
28665;BME280;15850;47.524;7.814;2022-11-03T01:06:27;98133.78;;;5.06;100.00
28665;BME280;15850;47.524;7.814;2022-11-03T01:08:53;98069.19;;;4.53;100.00
28665;BME280;15850;47.524;7.814;2022-11-03T01:11:23;98128.50;;;4.95;100.00
28665;BME280;15850;47.524;7.814;2022-11-03T01:13:48;98126.84;;;5.00;100.00
28665;BME280;15850;47.524;7.814;2022-11-03T01:16:14;98124.72;;;4.97;100.00
28665;BME280;15850;47.524;7.814;2022-11-03T01:18:39;98101.09;;;4.88;100.00
28665;BME280;15850;47.524;7.814;2022-11-03T01:21:05;98107.81;;;5.10;100.00
28665;BME280;15850;47.524;7.814;2022-11-03T01:23:30;98020.44;;;4.54;100.00
28665;BME280;15850;47.524;7.814;2022-11-03T01:25:56;98032.97;;;4.40;100.00
28665;BME280;15850;47.524;7.814;2022-11-03T01:28:23;97766.31;;;2.73;100.00
28665;BME280;15850;47.524;7.814;2022-11-03T01:30:48;98105.47;;;4.84;100.00
28665;BME280;15850;47.524;7.814;2022-11-03T01:33:14;97950.34;;;3.92;100.00
28665;BME280;15850;47.524;7.814;2022-11-03T01:35:39;97900.19;;;3.53;100.00
28665;BME280;15850;47.524;7.814;2022-11-03T01:38:05;97867.59;;;3.31;100.00
28665;BME280;15850;47.524;7.814;2022-11-03T01:40:31;98086.59;;;4.84;100.00
28665;BME280;15850;47.524;7.814;2022-11-03T01:43:14;98103.25;;;4.67;100.00
28665;BME280;15850;47.524;7.814;2022-11-03T01:45:41;97989.00;;;4.02;100.00
28665;BME280;15850;47.524;7.814;2022-11-03T01:48:08;98095.03;;;4.78;100.00
28665;BME280;15850;47.524;7.814;2022-11-03T01:50:34;98066.22;;;4.54;100.00
28665;BME280;15850;47.524;7.814;2022-11-03T01:53:00;98021.97;;;4.36;100.00
28665;BME280;15850;47.524;7.814;2022-11-03T01:55:27;98034.88;;;4.39;100.00
28665;BME280;15850;47.524;7.814;2022-11-03T01:57:57;98030.97;;;4.51;100.00
28665;BME280;15850;47.524;7.814;2022-11-03T02:00:24;97996.28;;;4.25;100.00
28665;BME280;15850;47.524;7.814;2022-11-03T02:02:52;97806.94;;;2.96;100.00
28665;BME280;15850;47.524;7.814;2022-11-03T02:05:20;97731.38;;;2.49;100.00
28665;BME280;15850;47.524;7.814;2022-11-03T02:07:51;98061.50;;;4.65;100.00
28665;BME280;15850;47.524;7.814;2022-11-03T02:10:18;97687.53;;;2.30;100.00
28665;BME280;15850;47.524;7.814;2022-11-03T02:12:44;97978.13;;;4.12;100.00
28665;BME280;15850;47.524;7.814;2022-11-03T02:15:12;98046.28;;;4.55;100.00
28665;BME280;15850;47.524;7.814;2022-11-03T02:17:40;98048.22;;;4.50;100.00
28665;BME280;15850;47.524;7.814;2022-11-03T02:20:10;98030.41;;;4.54;100.00
28665;BME280;15850;47.524;7.814;2022-11-03T02:23:10;98027.81;;;4.43;100.00
28665;BME280;15850;47.524;7.814;2022-11-03T02:25:44;97939.16;;;3.80;100.00
28665;BME280;15850;47.524;7.814;2022-11-03T02:28:12;97924.22;;;3.69;100.00
28665;BME280;15850;47.524;7.814;2022-11-03T02:30:43;97924.13;;;3.79;100.00
28665;BME280;15850;47.524;7.814;2022-11-03T02:33:15;97922.53;;;3.78;100.00
28665;BME280;15850;47.524;7.814;2022-11-03T02:35:49;98017.38;;;4.37;100.00
28665;BME280;15850;47.524;7.814;2022-11-03T02:38:18;97465.72;;;0.75;100.00
28665;BME280;15850;47.524;7.814;2022-11-03T02:40:49;97902.28;;;3.57;100.00
28665;BME280;15850;47.524;7.814;2022-11-03T02:43:18;97863.72;;;3.42;100.00
28665;BME280;15850;47.524;7.814;2022-11-03T02:45:46;98017.00;;;4.48;100.00
28665;BME280;15850;47.524;7.814;2022-11-03T02:48:15;97714.31;;;2.35;100.00
28665;BME280;15850;47.524;7.814;2022-11-03T02:50:42;98014.81;;;4.27;100.00
28665;BME280;15850;47.524;7.814;2022-11-03T02:53:10;97757.31;;;2.88;100.00
28665;BME280;15850;47.524;7.814;2022-11-03T02:55:38;98001.69;;;4.44;100.00
28665;BME280;15850;47.524;7.814;2022-11-03T02:58:12;97636.94;;;2.13;100.00
28665;BME280;15850;47.524;7.814;2022-11-03T03:00:46;97623.41;;;1.99;100.00
28665;BME280;15850;47.524;7.814;2022-11-03T03:03:16;97858.47;;;3.56;100.00
28665;BME280;15850;47.524;7.814;2022-11-03T03:05:46;97637.06;;;2.27;100.00
28665;BME280;15850;47.524;7.814;2022-11-03T03:08:14;97490.72;;;1.28;100.00
28665;BME280;15850;47.524;7.814;2022-11-03T03:10:41;97625.78;;;2.01;100.00
28665;BME280;15850;47.524;7.814;2022-11-03T03:13:12;97821.50;;;3.43;100.00
28665;BME280;15850;47.524;7.814;2022-11-03T03:15:45;97622.84;;;2.02;100.00
28665;BME280;15850;47.524;7.814;2022-11-03T03:18:19;97433.88;;;1.02;100.00
28665;BME280;15850;47.524;7.814;2022-11-03T03:20:51;97405.06;;;0.89;100.00
28665;BME280;15850;47.524;7.814;2022-11-03T03:23:20;97381.50;;;0.91;100.00
28665;BME280;15850;47.524;7.814;2022-11-03T03:25:49;97425.63;;;1.28;100.00
28665;BME280;15850;47.524;7.814;2022-11-03T03:28:22;97426.03;;;1.40;100.00
28665;BME280;15850;47.524;7.814;2022-11-03T03:30:51;97403.75;;;1.15;100.00
28665;BME280;15850;47.524;7.814;2022-11-03T03:33:18;97402.84;;;1.25;100.00
28665;BME280;15850;47.524;7.814;2022-11-03T03:35:47;97378.69;;;1.06;100.00
28665;BME280;15850;47.524;7.814;2022-11-03T03:38:17;97929.22;;;4.42;100.00
28665;BME280;15850;47.524;7.814;2022-11-03T03:40:45;97366.44;;;0.95;100.00
28665;BME280;15850;47.524;7.814;2022-11-03T03:43:15;97239.72;;;0.17;100.00
28665;BME280;15850;47.524;7.814;2022-11-03T03:45:44;97915.63;;;4.53;100.00
28665;BME280;15850;47.524;7.814;2022-11-03T03:48:11;97374.03;;;1.12;100.00
28665;BME280;15850;47.524;7.814;2022-11-03T03:50:38;97914.81;;;4.71;100.00
28665;BME280;15850;47.524;7.814;2022-11-03T03:53:09;97560.34;;;2.45;100.00
28665;BME280;15850;47.524;7.814;2022-11-03T03:55:37;97333.81;;;0.93;100.00
28665;BME280;15850;47.524;7.814;2022-11-03T03:58:04;97337.94;;;0.80;100.00
28665;BME280;15850;47.524;7.814;2022-11-03T04:00:30;97906.88;;;4.61;100.00
28665;BME280;15850;47.524;7.814;2022-11-03T04:02:58;97376.97;;;1.15;100.00
28665;BME280;15850;47.524;7.814;2022-11-03T04:05:24;97365.31;;;1.30;100.00
28665;BME280;15850;47.524;7.814;2022-11-03T04:07:51;97895.69;;;4.86;100.00
28665;BME280;15850;47.524;7.814;2022-11-03T04:10:18;97838.97;;;4.45;100.00
28665;BME280;15850;47.524;7.814;2022-11-03T04:12:44;97881.22;;;4.82;100.00
28665;BME280;15850;47.524;7.814;2022-11-03T04:15:11;97878.88;;;4.76;100.00
28665;BME280;15850;47.524;7.814;2022-11-03T04:17:38;97834.66;;;4.44;100.00
28665;BME280;15850;47.524;7.814;2022-11-03T04:20:11;97877.28;;;4.75;100.00
28665;BME280;15850;47.524;7.814;2022-11-03T04:22:37;97869.06;;;4.66;100.00
28665;BME280;15850;47.524;7.814;2022-11-03T04:25:03;97873.81;;;4.74;100.00
28665;BME280;15850;47.524;7.814;2022-11-03T04:27:31;97877.47;;;4.64;100.00
28665;BME280;15850;47.524;7.814;2022-11-03T04:30:01;97835.47;;;4.26;100.00
28665;BME280;15850;47.524;7.814;2022-11-03T04:32:28;97825.94;;;4.14;100.00
28665;BME280;15850;47.524;7.814;2022-11-03T04:34:53;97857.19;;;4.34;100.00
28665;BME280;15850;47.524;7.814;2022-11-03T04:37:20;97873.31;;;4.53;100.00
28665;BME280;15850;47.524;7.814;2022-11-03T04:39:46;97865.88;;;4.64;100.00
28665;BME280;15850;47.524;7.814;2022-11-03T04:42:14;97875.63;;;4.60;100.00
28665;BME280;15850;47.524;7.814;2022-11-03T04:44:41;97871.44;;;4.54;100.00
28665;BME280;15850;47.524;7.814;2022-11-03T04:47:08;97743.44;;;3.86;100.00
28665;BME280;15850;47.524;7.814;2022-11-03T04:49:36;97780.19;;;3.95;100.00
28665;BME280;15850;47.524;7.814;2022-11-03T04:52:01;97856.94;;;4.50;100.00
28665;BME280;15850;47.524;7.814;2022-11-03T04:54:28;97805.22;;;4.15;100.00
28665;BME280;15850;47.524;7.814;2022-11-03T04:56:54;97853.47;;;4.63;100.00
28665;BME280;15850;47.524;7.814;2022-11-03T04:59:20;97855.44;;;4.76;100.00
28665;BME280;15850;47.524;7.814;2022-11-03T05:01:45;97773.69;;;4.15;100.00
28665;BME280;15850;47.524;7.814;2022-11-03T05:04:13;97844.53;;;4.67;100.00
28665;BME280;15850;47.524;7.814;2022-11-03T05:06:39;97839.22;;;4.62;100.00
28665;BME280;15850;47.524;7.814;2022-11-03T05:09:10;97836.13;;;4.69;100.00
28665;BME280;15850;47.524;7.814;2022-11-03T05:11:40;97844.16;;;4.74;100.00
28665;BME280;15850;47.524;7.814;2022-11-03T05:14:13;97802.84;;;4.46;100.00
28665;BME280;15850;47.524;7.814;2022-11-03T05:16:39;97821.88;;;4.68;100.00
28665;BME280;15850;47.524;7.814;2022-11-03T05:19:11;97847.72;;;4.69;100.00
28665;BME280;15850;47.524;7.814;2022-11-03T05:21:39;97749.31;;;4.07;100.00
28665;BME280;15850;47.524;7.814;2022-11-03T05:24:10;97683.75;;;3.65;100.00
28665;BME280;15850;47.524;7.814;2022-11-03T05:26:38;97827.28;;;4.50;100.00
28665;BME280;15850;47.524;7.814;2022-11-03T05:29:10;97761.16;;;4.24;100.00
28665;BME280;15850;47.524;7.814;2022-11-03T05:31:37;97822.47;;;4.65;100.00
28665;BME280;15850;47.524;7.814;2022-11-03T05:34:22;97815.16;;;4.66;100.00
28665;BME280;15850;47.524;7.814;2022-11-03T05:36:50;97745.50;;;4.27;100.00
28665;BME280;15850;47.524;7.814;2022-11-03T05:39:25;97808.81;;;4.76;100.00
28665;BME280;15850;47.524;7.814;2022-11-03T05:41:55;97806.84;;;4.81;100.00
28665;BME280;15850;47.524;7.814;2022-11-03T05:44:26;97799.78;;;4.66;100.00
28665;BME280;15850;47.524;7.814;2022-11-03T05:46:53;97556.94;;;3.20;100.00
28665;BME280;15850;47.524;7.814;2022-11-03T05:49:18;97748.16;;;4.45;100.00
28665;BME280;15850;47.524;7.814;2022-11-03T05:51:44;97504.13;;;2.91;100.00
28665;BME280;15850;47.524;7.814;2022-11-03T05:54:18;97779.22;;;4.57;100.00
28665;BME280;15850;47.524;7.814;2022-11-03T05:56:44;97787.03;;;4.72;100.00
28665;BME280;15850;47.524;7.814;2022-11-03T05:59:13;97789.84;;;4.67;100.00
28665;BME280;15850;47.524;7.814;2022-11-03T06:01:39;97784.66;;;4.70;100.00
28665;BME280;15850;47.524;7.814;2022-11-03T06:04:14;97755.88;;;4.66;100.00
28665;BME280;15850;47.524;7.814;2022-11-03T06:06:51;97776.47;;;4.76;100.00
28665;BME280;15850;47.524;7.814;2022-11-03T06:09:21;97588.06;;;3.59;100.00
28665;BME280;15850;47.524;7.814;2022-11-03T06:11:48;97719.91;;;4.43;100.00
28665;BME280;15850;47.524;7.814;2022-11-03T06:14:19;97704.28;;;4.59;100.00
28665;BME280;15850;47.524;7.814;2022-11-03T06:16:47;97759.44;;;4.94;100.00
28665;BME280;15850;47.524;7.814;2022-11-03T06:19:21;97690.66;;;4.36;100.00
28665;BME280;15850;47.524;7.814;2022-11-03T06:21:47;97755.31;;;4.83;100.00
28665;BME280;15850;47.524;7.814;2022-11-03T06:24:14;97760.13;;;5.00;100.00
28665;BME280;15850;47.524;7.814;2022-11-03T06:26:41;97753.72;;;4.95;100.00
28665;BME280;15850;47.524;7.814;2022-11-03T06:29:12;97755.03;;;5.12;100.00
28665;BME280;15850;47.524;7.814;2022-11-03T06:31:39;97752.84;;;5.14;100.00
28665;BME280;15850;47.524;7.814;2022-11-03T06:36:55;97742.47;;;5.21;100.00
28665;BME280;15850;47.524;7.814;2022-11-03T06:39:22;97740.75;;;5.25;100.00
28665;BME280;15850;47.524;7.814;2022-11-03T06:41:50;97718.38;;;5.25;100.00
28665;BME280;15850;47.524;7.814;2022-11-03T06:44:21;97748.94;;;5.48;100.00
28665;BME280;15850;47.524;7.814;2022-11-03T06:46:48;97742.63;;;5.52;100.00
28665;BME280;15850;47.524;7.814;2022-11-03T06:49:25;97642.69;;;5.07;100.00
28665;BME280;15850;47.524;7.814;2022-11-03T06:51:51;97743.06;;;5.82;100.00
28665;BME280;15850;47.524;7.814;2022-11-03T06:54:17;97326.84;;;3.33;100.00
28665;BME280;15850;47.524;7.814;2022-11-03T06:56:42;97756.94;;;6.25;100.00
28665;BME280;15850;47.524;7.814;2022-11-03T06:59:09;97740.38;;;6.41;100.00
28665;BME280;15850;47.524;7.814;2022-11-03T07:01:38;97739.50;;;6.54;100.00
28665;BME280;15850;47.524;7.814;2022-11-03T07:04:12;97748.75;;;6.62;100.00
28665;BME280;15850;47.524;7.814;2022-11-03T07:06:39;97731.97;;;6.73;100.00
28665;BME280;15850;47.524;7.814;2022-11-03T07:09:13;97736.59;;;6.81;100.00
28665;BME280;15850;47.524;7.814;2022-11-03T07:11:44;97683.13;;;6.70;100.00
28665;BME280;15850;47.524;7.814;2022-11-03T07:14:11;97734.63;;;7.04;100.00
28665;BME280;15850;47.524;7.814;2022-11-03T07:16:40;97688.78;;;6.91;100.00
28665;BME280;15850;47.524;7.814;2022-11-03T07:19:12;97668.09;;;6.86;100.00
28665;BME280;15850;47.524;7.814;2022-11-03T07:21:44;97724.09;;;7.51;100.00
28665;BME280;15850;47.524;7.814;2022-11-03T07:24:15;97727.00;;;7.55;100.00
28665;BME280;15850;47.524;7.814;2022-11-03T07:26:43;97721.59;;;7.72;100.00
28665;BME280;15850;47.524;7.814;2022-11-03T07:29:14;97727.97;;;7.76;100.00
28665;BME280;15850;47.524;7.814;2022-11-03T07:31:41;97712.34;;;7.73;100.00
28665;BME280;15850;47.524;7.814;2022-11-03T07:34:13;97717.00;;;7.82;100.00
28665;BME280;15850;47.524;7.814;2022-11-03T07:36:39;97501.63;;;6.54;100.00
28665;BME280;15850;47.524;7.814;2022-11-03T07:39:10;97634.28;;;7.58;100.00
28665;BME280;15850;47.524;7.814;2022-11-03T07:41:37;97737.22;;;8.10;100.00
28665;BME280;15850;47.524;7.814;2022-11-03T07:44:04;97260.19;;;5.32;100.00
28665;BME280;15850;47.524;7.814;2022-11-03T07:46:33;97374.28;;;6.29;100.00
28665;BME280;15850;47.524;7.814;2022-11-03T07:49:00;97709.63;;;8.52;100.00
28665;BME280;15850;47.524;7.814;2022-11-03T07:51:29;97359.66;;;6.39;100.00
28665;BME280;15850;47.524;7.814;2022-11-03T07:53:57;97660.72;;;8.22;100.00
28665;BME280;15850;47.524;7.814;2022-11-03T07:56:31;97641.09;;;8.16;100.00
28665;BME280;15850;47.524;7.814;2022-11-03T07:58:59;97408.00;;;6.58;100.00
28665;BME280;15850;47.524;7.814;2022-11-03T08:01:27;97699.91;;;8.42;100.00
28665;BME280;15850;47.524;7.814;2022-11-03T08:03:57;97459.38;;;6.93;100.00
28665;BME280;15850;47.524;7.814;2022-11-03T08:06:23;97691.75;;;8.51;100.00
28665;BME280;15850;47.524;7.814;2022-11-03T08:08:50;97691.09;;;8.62;100.00
28665;BME280;15850;47.524;7.814;2022-11-03T08:11:16;97684.31;;;8.77;100.00
28665;BME280;15850;47.524;7.814;2022-11-03T08:13:41;97594.81;;;8.30;100.00
28665;BME280;15850;47.524;7.814;2022-11-03T08:16:07;97690.78;;;9.02;100.00
28665;BME280;15850;47.524;7.814;2022-11-03T08:18:32;97648.25;;;8.85;100.00
28665;BME280;15850;47.524;7.814;2022-11-03T08:20:58;97594.22;;;8.72;100.00
28665;BME280;15850;47.524;7.814;2022-11-03T08:23:23;97685.91;;;9.46;100.00
28665;BME280;15850;47.524;7.814;2022-11-03T08:25:50;97638.19;;;9.36;100.00
28665;BME280;15850;47.524;7.814;2022-11-03T08:28:16;97675.91;;;9.80;100.00
28665;BME280;15850;47.524;7.814;2022-11-03T08:30:41;97589.00;;;9.38;100.00
28665;BME280;15850;47.524;7.814;2022-11-03T08:33:07;97664.25;;;10.00;100.00
28665;BME280;15850;47.524;7.814;2022-11-03T08:35:32;97247.22;;;7.49;100.00
28665;BME280;15850;47.524;7.814;2022-11-03T08:37:58;97658.66;;;10.18;100.00
28665;BME280;15850;47.524;7.814;2022-11-03T08:40:23;97671.31;;;9.93;100.00
28665;BME280;15850;47.524;7.814;2022-11-03T08:42:50;97455.94;;;8.84;100.00
28665;BME280;15850;47.524;7.814;2022-11-03T08:45:16;97677.78;;;10.42;100.00
28665;BME280;15850;47.524;7.814;2022-11-03T08:47:41;97550.09;;;10.00;100.00
28665;BME280;15850;47.524;7.814;2022-11-03T08:50:07;97648.03;;;10.95;100.00
28665;BME280;15850;47.524;7.814;2022-11-03T08:52:33;97533.66;;;10.30;100.00
28665;BME280;15850;47.524;7.814;2022-11-03T08:54:58;97066.03;;;6.52;100.00
28665;BME280;15850;47.524;7.814;2022-11-03T08:57:24;97549.22;;;10.21;100.00
28665;BME280;15850;47.524;7.814;2022-11-03T08:59:51;97628.53;;;10.80;100.00
28665;BME280;15850;47.524;7.814;2022-11-03T09:02:16;97469.63;;;9.62;100.00
28665;BME280;15850;47.524;7.814;2022-11-03T09:04:42;97640.22;;;10.93;100.00
28665;BME280;15850;47.524;7.814;2022-11-03T09:07:07;97630.78;;;11.15;100.00
28665;BME280;15850;47.524;7.814;2022-11-03T09:09:33;97565.13;;;10.55;100.00
28665;BME280;15850;47.524;7.814;2022-11-03T09:11:58;97592.22;;;10.52;100.00
28665;BME280;15850;47.524;7.814;2022-11-03T09:14:24;97396.63;;;9.15;100.00
28665;BME280;15850;47.524;7.814;2022-11-03T09:16:51;97524.13;;;10.48;100.00
28665;BME280;15850;47.524;7.814;2022-11-03T09:19:16;97566.72;;;10.93;100.00
28665;BME280;15850;47.524;7.814;2022-11-03T09:21:42;97516.00;;;11.01;100.00
28665;BME280;15850;47.524;7.814;2022-11-03T09:24:07;97604.81;;;11.18;100.00
28665;BME280;15850;47.524;7.814;2022-11-03T09:26:33;97609.06;;;11.56;100.00
28665;BME280;15850;47.524;7.814;2022-11-03T09:28:59;97592.19;;;11.25;100.00
28665;BME280;15850;47.524;7.814;2022-11-03T09:31:25;97588.31;;;11.79;100.00
28665;BME280;15850;47.524;7.814;2022-11-03T09:33:52;97386.34;;;10.40;100.00
28665;BME280;15850;47.524;7.814;2022-11-03T09:36:17;97295.44;;;9.88;100.00
28665;BME280;15850;47.524;7.814;2022-11-03T09:38:43;97597.22;;;12.20;100.00
28665;BME280;15850;47.524;7.814;2022-11-03T09:41:08;97462.22;;;11.66;100.00
28665;BME280;15850;47.524;7.814;2022-11-03T09:43:34;97152.38;;;9.80;100.00
28665;BME280;15850;47.524;7.814;2022-11-03T09:46:00;97455.28;;;11.85;100.00
28665;BME280;15850;47.524;7.814;2022-11-03T09:48:26;97445.50;;;11.68;100.00
28665;BME280;15850;47.524;7.814;2022-11-03T09:50:54;97450.56;;;11.53;100.00
28665;BME280;15850;47.524;7.814;2022-11-03T09:53:21;97478.16;;;12.12;100.00
28665;BME280;15850;47.524;7.814;2022-11-03T09:55:47;97508.63;;;12.30;100.00
28665;BME280;15850;47.524;7.814;2022-11-03T09:58:14;97551.81;;;12.75;100.00
28665;BME280;15850;47.524;7.814;2022-11-03T10:00:40;97469.38;;;12.34;100.00
28665;BME280;15850;47.524;7.814;2022-11-03T10:03:11;97537.38;;;13.10;100.00
28665;BME280;15850;47.524;7.814;2022-11-03T10:05:41;97560.56;;;12.65;100.00
28665;BME280;15850;47.524;7.814;2022-11-03T10:08:18;97543.47;;;12.52;100.00
28665;BME280;15850;47.524;7.814;2022-11-03T10:10:45;97484.50;;;12.48;100.00
28665;BME280;15850;47.524;7.814;2022-11-03T10:13:20;97488.91;;;12.87;100.00
28665;BME280;15850;47.524;7.814;2022-11-03T10:15:47;97467.31;;;12.98;100.00
28665;BME280;15850;47.524;7.814;2022-11-03T10:18:13;97511.31;;;13.71;100.00
28665;BME280;15850;47.524;7.814;2022-11-03T10:21:17;97406.06;;;12.99;100.00
28665;BME280;15850;47.524;7.814;2022-11-03T10:23:47;97500.06;;;13.95;100.00
28665;BME280;15850;47.524;7.814;2022-11-03T10:26:14;97485.84;;;14.09;100.00
28665;BME280;15850;47.524;7.814;2022-11-03T10:28:56;97473.44;;;13.92;100.00
28665;BME280;15850;47.524;7.814;2022-11-03T10:31:30;97464.47;;;13.72;100.00
28665;BME280;15850;47.524;7.814;2022-11-03T10:33:56;97261.19;;;12.69;100.00
28665;BME280;15850;47.524;7.814;2022-11-03T10:36:24;97383.28;;;13.11;100.00
28665;BME280;15850;47.524;7.814;2022-11-03T10:38:51;97362.00;;;13.01;100.00
28665;BME280;15850;47.524;7.814;2022-11-03T10:41:18;97314.25;;;12.33;100.00
28665;BME280;15850;47.524;7.814;2022-11-03T10:43:58;97340.41;;;12.53;100.00
28665;BME280;15850;47.524;7.814;2022-11-03T10:46:24;97437.13;;;13.49;100.00
28665;BME280;15850;47.524;7.814;2022-11-03T10:49:01;97427.84;;;14.00;100.00
28665;BME280;15850;47.524;7.814;2022-11-03T10:51:27;97461.72;;;13.30;100.00
28665;BME280;15850;47.524;7.814;2022-11-03T10:53:54;97420.91;;;13.60;100.00
28665;BME280;15850;47.524;7.814;2022-11-03T10:56:20;97380.75;;;13.64;100.00
28665;BME280;15850;47.524;7.814;2022-11-03T10:58:45;97384.53;;;13.56;100.00
28665;BME280;15850;47.524;7.814;2022-11-03T11:01:11;97306.56;;;13.39;100.00
28665;BME280;15850;47.524;7.814;2022-11-03T11:03:40;97219.59;;;12.76;100.00
28665;BME280;15850;47.524;7.814;2022-11-03T11:06:17;97060.13;;;12.08;100.00
28665;BME280;15850;47.524;7.814;2022-11-03T11:08:42;97406.94;;;14.11;100.00
28665;BME280;15850;47.524;7.814;2022-11-03T11:11:14;97434.09;;;14.50;100.00
28665;BME280;15850;47.524;7.814;2022-11-03T11:13:40;97266.63;;;13.84;100.00
28665;BME280;15850;47.524;7.814;2022-11-03T11:19:06;97362.19;;;14.00;100.00
28665;BME280;15850;47.524;7.814;2022-11-03T11:24:56;97367.53;;;13.66;100.00
28665;BME280;15850;47.524;7.814;2022-11-03T11:31:10;97282.78;;;12.78;100.00
28665;BME280;15850;47.524;7.814;2022-11-03T11:33:49;97312.19;;;12.65;100.00
28665;BME280;15850;47.524;7.814;2022-11-03T11:36:23;97253.22;;;12.41;100.00
28665;BME280;15850;47.524;7.814;2022-11-03T11:38:59;97283.94;;;12.57;100.00
28665;BME280;15850;47.524;7.814;2022-11-03T11:44:57;97321.56;;;12.67;100.00
28665;BME280;15850;47.524;7.814;2022-11-03T11:47:25;97281.72;;;12.82;100.00
28665;BME280;15850;47.524;7.814;2022-11-03T11:52:58;97268.34;;;13.43;100.00
28665;BME280;15850;47.524;7.814;2022-11-03T11:55:30;97302.03;;;14.00;100.00
28665;BME280;15850;47.524;7.814;2022-11-03T11:57:57;97297.03;;;14.05;100.00
28665;BME280;15850;47.524;7.814;2022-11-03T12:00:24;97215.75;;;13.49;100.00
28665;BME280;15850;47.524;7.814;2022-11-03T12:02:51;97299.09;;;13.85;100.00
28665;BME280;15850;47.524;7.814;2022-11-03T12:05:22;97283.00;;;13.80;100.00
28665;BME280;15850;47.524;7.814;2022-11-03T12:07:48;97273.56;;;13.74;100.00
28665;BME280;15850;47.524;7.814;2022-11-03T12:10:16;97269.66;;;13.75;100.00
28665;BME280;15850;47.524;7.814;2022-11-03T12:12:42;97008.72;;;11.67;100.00
28665;BME280;15850;47.524;7.814;2022-11-03T12:18:32;97262.59;;;13.48;100.00
28665;BME280;15850;47.524;7.814;2022-11-03T12:20:58;97246.50;;;13.43;100.00
28665;BME280;15850;47.524;7.814;2022-11-03T12:23:35;97221.91;;;13.43;100.00
28665;BME280;15850;47.524;7.814;2022-11-03T12:26:03;97263.88;;;13.57;100.00
28665;BME280;15850;47.524;7.814;2022-11-03T12:28:33;97239.13;;;13.47;100.00
28665;BME280;15850;47.524;7.814;2022-11-03T12:30:59;97221.47;;;13.40;100.00
28665;BME280;15850;47.524;7.814;2022-11-03T12:33:25;97226.94;;;13.67;100.00
28665;BME280;15850;47.524;7.814;2022-11-03T12:35:50;97134.91;;;13.45;100.00
28665;BME280;15850;47.524;7.814;2022-11-03T12:38:16;97191.53;;;13.74;100.00
28665;BME280;15850;47.524;7.814;2022-11-03T12:40:41;97189.25;;;13.80;100.00
28665;BME280;15850;47.524;7.814;2022-11-03T12:43:08;97192.47;;;13.85;100.00
28665;BME280;15850;47.524;7.814;2022-11-03T12:45:34;97191.19;;;13.79;100.00
28665;BME280;15850;47.524;7.814;2022-11-03T12:48:00;97181.34;;;14.01;100.00
28665;BME280;15850;47.524;7.814;2022-11-03T12:50:25;96802.00;;;11.39;100.00
28665;BME280;15850;47.524;7.814;2022-11-03T12:52:51;97085.75;;;13.48;100.00
28665;BME280;15850;47.524;7.814;2022-11-03T12:55:16;97171.91;;;13.99;100.00
28665;BME280;15850;47.524;7.814;2022-11-03T12:57:42;97175.75;;;14.24;100.00
28665;BME280;15850;47.524;7.814;2022-11-03T13:00:10;97122.66;;;13.95;100.00
28665;BME280;15850;47.524;7.814;2022-11-03T13:02:35;97135.66;;;14.05;100.00
28665;BME280;15850;47.524;7.814;2022-11-03T13:05:01;97148.63;;;14.12;100.00
28665;BME280;15850;47.524;7.814;2022-11-03T13:07:26;97137.00;;;13.85;100.00
28665;BME280;15850;47.524;7.814;2022-11-03T13:09:52;97140.72;;;13.73;100.00
28665;BME280;15850;47.524;7.814;2022-11-03T13:12:17;97154.13;;;13.25;100.00
28665;BME280;15850;47.524;7.814;2022-11-03T13:14:43;97146.19;;;12.70;100.00
28665;BME280;15850;47.524;7.814;2022-11-03T13:17:10;97139.16;;;12.27;100.00
28665;BME280;15850;47.524;7.814;2022-11-03T13:19:35;97147.88;;;12.13;100.00
28665;BME280;15850;47.524;7.814;2022-11-03T13:22:01;96786.34;;;9.61;100.00
28665;BME280;15850;47.524;7.814;2022-11-03T13:24:26;97145.34;;;11.85;100.00